sensor_id;sensor_type;location;lat;lon;timestamp;P1;durP1;ratioP1;P2;durP2;ratioP2
77022;SDS011;65952;51.440;-2.054;2023-04-24T00:02:20;14.70;;;8.20;;
77022;SDS011;65952;51.440;-2.054;2023-04-24T00:04:45;15.40;;;7.90;;
77022;SDS011;65952;51.440;-2.054;2023-04-24T00:07:11;14.73;;;8.00;;
77022;SDS011;65952;51.440;-2.054;2023-04-24T00:09:38;15.23;;;8.05;;
77022;SDS011;65952;51.440;-2.054;2023-04-24T00:12:03;16.13;;;8.23;;
77022;SDS011;65952;51.440;-2.054;2023-04-24T00:14:30;14.18;;;7.22;;
77022;SDS011;65952;51.440;-2.054;2023-04-24T00:16:56;14.65;;;8.40;;
77022;SDS011;65952;51.440;-2.054;2023-04-24T00:19:21;17.52;;;8.52;;
77022;SDS011;65952;51.440;-2.054;2023-04-24T00:21:47;15.45;;;8.27;;
77022;SDS011;65952;51.440;-2.054;2023-04-24T00:24:15;15.75;;;8.10;;
77022;SDS011;65952;51.440;-2.054;2023-04-24T00:26:41;15.80;;;8.07;;
77022;SDS011;65952;51.440;-2.054;2023-04-24T00:29:07;14.77;;;8.10;;
77022;SDS011;65952;51.440;-2.054;2023-04-24T00:31:32;19.13;;;9.18;;
77022;SDS011;65952;51.440;-2.054;2023-04-24T00:33:59;17.23;;;8.82;;
77022;SDS011;65952;51.440;-2.054;2023-04-24T00:36:25;15.75;;;8.52;;
77022;SDS011;65952;51.440;-2.054;2023-04-24T00:38:52;15.77;;;9.10;;
77022;SDS011;65952;51.440;-2.054;2023-04-24T00:41:18;15.25;;;7.78;;
77022;SDS011;65952;51.440;-2.054;2023-04-24T00:43:44;17.02;;;8.98;;
77022;SDS011;65952;51.440;-2.054;2023-04-24T00:46:09;17.23;;;9.13;;
77022;SDS011;65952;51.440;-2.054;2023-04-24T00:48:36;16.83;;;8.38;;
77022;SDS011;65952;51.440;-2.054;2023-04-24T00:51:03;16.58;;;8.55;;
77022;SDS011;65952;51.440;-2.054;2023-04-24T00:53:29;16.23;;;8.82;;
77022;SDS011;65952;51.440;-2.054;2023-04-24T00:55:54;16.35;;;9.50;;
77022;SDS011;65952;51.440;-2.054;2023-04-24T00:58:20;19.38;;;9.52;;
77022;SDS011;65952;51.440;-2.054;2023-04-24T01:00:46;19.50;;;9.35;;
77022;SDS011;65952;51.440;-2.054;2023-04-24T01:03:13;17.60;;;8.77;;
77022;SDS011;65952;51.440;-2.054;2023-04-24T01:05:40;17.20;;;9.38;;
77022;SDS011;65952;51.440;-2.054;2023-04-24T01:08:06;18.02;;;8.68;;
77022;SDS011;65952;51.440;-2.054;2023-04-24T01:10:32;18.30;;;9.20;;
77022;SDS011;65952;51.440;-2.054;2023-04-24T01:12:59;19.10;;;10.20;;
77022;SDS011;65952;51.440;-2.054;2023-04-24T01:15:25;19.50;;;9.73;;
77022;SDS011;65952;51.440;-2.054;2023-04-24T01:17:50;21.00;;;11.43;;
77022;SDS011;65952;51.440;-2.054;2023-04-24T01:20:16;21.38;;;10.35;;
77022;SDS011;65952;51.440;-2.054;2023-04-24T01:22:42;17.25;;;9.93;;
77022;SDS011;65952;51.440;-2.054;2023-04-24T01:25:08;18.83;;;9.73;;
77022;SDS011;65952;51.440;-2.054;2023-04-24T01:27:33;18.98;;;10.10;;
77022;SDS011;65952;51.440;-2.054;2023-04-24T01:29:59;21.63;;;10.55;;
77022;SDS011;65952;51.440;-2.054;2023-04-24T01:32:25;18.02;;;9.38;;
77022;SDS011;65952;51.440;-2.054;2023-04-24T01:34:51;17.85;;;9.90;;
77022;SDS011;65952;51.440;-2.054;2023-04-24T01:37:16;19.02;;;10.35;;
77022;SDS011;65952;51.440;-2.054;2023-04-24T01:39:43;17.23;;;9.70;;
77022;SDS011;65952;51.440;-2.054;2023-04-24T01:42:08;19.88;;;9.48;;
77022;SDS011;65952;51.440;-2.054;2023-04-24T01:44:34;17.02;;;9.15;;
77022;SDS011;65952;51.440;-2.054;2023-04-24T01:47:00;19.67;;;8.93;;
77022;SDS011;65952;51.440;-2.054;2023-04-24T01:49:26;15.40;;;8.77;;
77022;SDS011;65952;51.440;-2.054;2023-04-24T01:51:51;17.60;;;9.27;;
77022;SDS011;65952;51.440;-2.054;2023-04-24T01:54:17;15.20;;;8.43;;
77022;SDS011;65952;51.440;-2.054;2023-04-24T01:56:43;17.73;;;9.25;;
77022;SDS011;65952;51.440;-2.054;2023-04-24T01:59:09;14.52;;;8.02;;
77022;SDS011;65952;51.440;-2.054;2023-04-24T02:01:36;17.25;;;8.68;;
77022;SDS011;65952;51.440;-2.054;2023-04-24T02:04:02;13.70;;;7.95;;
77022;SDS011;65952;51.440;-2.054;2023-04-24T02:06:28;15.40;;;8.35;;
77022;SDS011;65952;51.440;-2.054;2023-04-24T02:08:53;16.88;;;9.15;;
77022;SDS011;65952;51.440;-2.054;2023-04-24T02:11:18;16.42;;;8.30;;
77022;SDS011;65952;51.440;-2.054;2023-04-24T02:13:44;14.57;;;8.25;;
77022;SDS011;65952;51.440;-2.054;2023-04-24T02:16:09;19.73;;;8.25;;
77022;SDS011;65952;51.440;-2.054;2023-04-24T02:18:35;19.65;;;9.25;;
77022;SDS011;65952;51.440;-2.054;2023-04-24T02:21:01;16.17;;;8.35;;
77022;SDS011;65952;51.440;-2.054;2023-04-24T02:23:26;15.35;;;7.85;;
77022;SDS011;65952;51.440;-2.054;2023-04-24T02:25:52;17.00;;;8.90;;
77022;SDS011;65952;51.440;-2.054;2023-04-24T02:28:18;14.10;;;7.63;;
77022;SDS011;65952;51.440;-2.054;2023-04-24T02:30:44;14.95;;;8.18;;
77022;SDS011;65952;51.440;-2.054;2023-04-24T02:33:09;16.83;;;8.35;;
77022;SDS011;65952;51.440;-2.054;2023-04-24T02:35:34;13.68;;;7.63;;
77022;SDS011;65952;51.440;-2.054;2023-04-24T02:38:01;17.25;;;9.02;;
77022;SDS011;65952;51.440;-2.054;2023-04-24T02:40:26;16.45;;;8.15;;
77022;SDS011;65952;51.440;-2.054;2023-04-24T02:42:52;17.25;;;8.27;;
77022;SDS011;65952;51.440;-2.054;2023-04-24T02:45:17;14.93;;;8.23;;
77022;SDS011;65952;51.440;-2.054;2023-04-24T02:47:42;17.60;;;8.35;;
77022;SDS011;65952;51.440;-2.054;2023-04-24T02:50:08;14.13;;;8.23;;
77022;SDS011;65952;51.440;-2.054;2023-04-24T02:52:33;15.43;;;8.77;;
77022;SDS011;65952;51.440;-2.054;2023-04-24T02:54:59;14.18;;;7.55;;
77022;SDS011;65952;51.440;-2.054;2023-04-24T02:57:24;14.05;;;7.88;;
77022;SDS011;65952;51.440;-2.054;2023-04-24T02:59:50;16.10;;;7.28;;
77022;SDS011;65952;51.440;-2.054;2023-04-24T03:02:15;12.75;;;7.18;;
77022;SDS011;65952;51.440;-2.054;2023-04-24T03:04:40;11.68;;;6.88;;
77022;SDS011;65952;51.440;-2.054;2023-04-24T03:07:07;12.57;;;6.97;;
77022;SDS011;65952;51.440;-2.054;2023-04-24T03:09:33;12.55;;;6.93;;
77022;SDS011;65952;51.440;-2.054;2023-04-24T03:11:58;14.63;;;7.38;;
77022;SDS011;65952;51.440;-2.054;2023-04-24T03:14:24;13.98;;;7.25;;
77022;SDS011;65952;51.440;-2.054;2023-04-24T03:16:49;12.63;;;7.10;;
77022;SDS011;65952;51.440;-2.054;2023-04-24T03:19:15;13.60;;;7.05;;
77022;SDS011;65952;51.440;-2.054;2023-04-24T03:21:40;12.77;;;7.18;;
77022;SDS011;65952;51.440;-2.054;2023-04-24T03:24:09;11.88;;;7.13;;
77022;SDS011;65952;51.440;-2.054;2023-04-24T03:26:34;13.10;;;6.65;;
77022;SDS011;65952;51.440;-2.054;2023-04-24T03:29:00;16.17;;;7.32;;
77022;SDS011;65952;51.440;-2.054;2023-04-24T03:31:26;13.60;;;7.03;;
77022;SDS011;65952;51.440;-2.054;2023-04-24T03:33:51;14.25;;;6.97;;
77022;SDS011;65952;51.440;-2.054;2023-04-24T03:36:16;12.63;;;6.45;;
77022;SDS011;65952;51.440;-2.054;2023-04-24T03:38:44;12.32;;;6.88;;
77022;SDS011;65952;51.440;-2.054;2023-04-24T03:41:09;13.32;;;6.70;;
77022;SDS011;65952;51.440;-2.054;2023-04-24T03:43:34;11.48;;;6.38;;
77022;SDS011;65952;51.440;-2.054;2023-04-24T03:46:00;13.75;;;7.40;;
77022;SDS011;65952;51.440;-2.054;2023-04-24T03:48:26;14.15;;;7.07;;
77022;SDS011;65952;51.440;-2.054;2023-04-24T03:50:51;13.88;;;7.93;;
77022;SDS011;65952;51.440;-2.054;2023-04-24T03:53:17;13.35;;;7.50;;
77022;SDS011;65952;51.440;-2.054;2023-04-24T03:55:42;15.52;;;7.72;;
77022;SDS011;65952;51.440;-2.054;2023-04-24T03:58:08;14.52;;;7.57;;
77022;SDS011;65952;51.440;-2.054;2023-04-24T04:00:33;14.77;;;7.60;;
77022;SDS011;65952;51.440;-2.054;2023-04-24T04:02:59;12.60;;;6.95;;
77022;SDS011;65952;51.440;-2.054;2023-04-24T04:05:25;12.40;;;6.32;;
77022;SDS011;65952;51.440;-2.054;2023-04-24T04:07:50;13.35;;;7.22;;
77022;SDS011;65952;51.440;-2.054;2023-04-24T04:10:15;15.10;;;8.05;;
77022;SDS011;65952;51.440;-2.054;2023-04-24T04:12:42;12.85;;;7.22;;
77022;SDS011;65952;51.440;-2.054;2023-04-24T04:15:07;18.13;;;7.57;;
77022;SDS011;65952;51.440;-2.054;2023-04-24T04:17:33;13.05;;;7.03;;
77022;SDS011;65952;51.440;-2.054;2023-04-24T04:19:59;14.52;;;7.65;;
77022;SDS011;65952;51.440;-2.054;2023-04-24T04:22:25;15.05;;;7.05;;
77022;SDS011;65952;51.440;-2.054;2023-04-24T04:24:50;13.48;;;8.02;;
77022;SDS011;65952;51.440;-2.054;2023-04-24T04:27:16;13.30;;;7.18;;
77022;SDS011;65952;51.440;-2.054;2023-04-24T04:29:43;12.98;;;7.43;;
77022;SDS011;65952;51.440;-2.054;2023-04-24T04:32:09;15.52;;;7.82;;
77022;SDS011;65952;51.440;-2.054;2023-04-24T04:34:34;15.88;;;7.43;;
77022;SDS011;65952;51.440;-2.054;2023-04-24T04:37:02;16.95;;;8.05;;
77022;SDS011;65952;51.440;-2.054;2023-04-24T04:39:28;19.02;;;8.63;;
77022;SDS011;65952;51.440;-2.054;2023-04-24T04:41:55;16.25;;;7.75;;
77022;SDS011;65952;51.440;-2.054;2023-04-24T04:44:20;15.23;;;8.18;;
77022;SDS011;65952;51.440;-2.054;2023-04-24T04:46:46;14.63;;;8.05;;
77022;SDS011;65952;51.440;-2.054;2023-04-24T04:49:12;17.75;;;7.80;;
77022;SDS011;65952;51.440;-2.054;2023-04-24T04:51:38;18.15;;;8.23;;
77022;SDS011;65952;51.440;-2.054;2023-04-24T04:54:03;14.90;;;7.93;;
77022;SDS011;65952;51.440;-2.054;2023-04-24T04:56:29;15.75;;;8.20;;
77022;SDS011;65952;51.440;-2.054;2023-04-24T04:58:54;17.05;;;8.70;;
77022;SDS011;65952;51.440;-2.054;2023-04-24T05:01:20;17.60;;;8.43;;
77022;SDS011;65952;51.440;-2.054;2023-04-24T05:03:46;16.35;;;8.25;;
77022;SDS011;65952;51.440;-2.054;2023-04-24T05:06:11;16.75;;;7.78;;
77022;SDS011;65952;51.440;-2.054;2023-04-24T05:08:37;14.75;;;7.93;;
77022;SDS011;65952;51.440;-2.054;2023-04-24T05:11:02;18.20;;;8.20;;
77022;SDS011;65952;51.440;-2.054;2023-04-24T05:13:28;13.98;;;8.13;;
77022;SDS011;65952;51.440;-2.054;2023-04-24T05:15:53;17.10;;;7.72;;
77022;SDS011;65952;51.440;-2.054;2023-04-24T05:18:18;14.80;;;7.85;;
77022;SDS011;65952;51.440;-2.054;2023-04-24T05:20:44;15.23;;;7.65;;
77022;SDS011;65952;51.440;-2.054;2023-04-24T05:23:09;15.05;;;8.07;;
77022;SDS011;65952;51.440;-2.054;2023-04-24T05:25:35;16.25;;;8.25;;
77022;SDS011;65952;51.440;-2.054;2023-04-24T05:28:01;15.32;;;7.50;;
77022;SDS011;65952;51.440;-2.054;2023-04-24T05:30:27;17.73;;;7.80;;
77022;SDS011;65952;51.440;-2.054;2023-04-24T05:32:53;14.18;;;7.70;;
77022;SDS011;65952;51.440;-2.054;2023-04-24T05:35:18;15.25;;;6.90;;
77022;SDS011;65952;51.440;-2.054;2023-04-24T05:37:44;13.80;;;7.05;;
77022;SDS011;65952;51.440;-2.054;2023-04-24T05:40:10;15.27;;;8.07;;
77022;SDS011;65952;51.440;-2.054;2023-04-24T05:42:36;14.90;;;7.28;;
77022;SDS011;65952;51.440;-2.054;2023-04-24T05:45:01;12.77;;;6.93;;
77022;SDS011;65952;51.440;-2.054;2023-04-24T05:47:27;13.07;;;7.28;;
77022;SDS011;65952;51.440;-2.054;2023-04-24T05:49:52;13.52;;;7.70;;
77022;SDS011;65952;51.440;-2.054;2023-04-24T05:52:18;12.60;;;7.57;;
77022;SDS011;65952;51.440;-2.054;2023-04-24T05:54:43;14.38;;;7.38;;
77022;SDS011;65952;51.440;-2.054;2023-04-24T05:57:09;11.68;;;6.60;;
77022;SDS011;65952;51.440;-2.054;2023-04-24T05:59:36;15.20;;;7.32;;
77022;SDS011;65952;51.440;-2.054;2023-04-24T06:02:03;12.63;;;6.95;;
77022;SDS011;65952;51.440;-2.054;2023-04-24T06:04:29;14.40;;;6.97;;
77022;SDS011;65952;51.440;-2.054;2023-04-24T06:06:54;12.98;;;7.15;;
77022;SDS011;65952;51.440;-2.054;2023-04-24T06:09:21;20.73;;;7.00;;
77022;SDS011;65952;51.440;-2.054;2023-04-24T06:11:47;12.60;;;6.97;;
77022;SDS011;65952;51.440;-2.054;2023-04-24T06:14:14;14.18;;;6.65;;
77022;SDS011;65952;51.440;-2.054;2023-04-24T06:16:41;12.02;;;7.22;;
77022;SDS011;65952;51.440;-2.054;2023-04-24T06:19:07;16.73;;;6.93;;
77022;SDS011;65952;51.440;-2.054;2023-04-24T06:21:33;12.55;;;6.88;;
77022;SDS011;65952;51.440;-2.054;2023-04-24T06:23:58;20.10;;;7.68;;
77022;SDS011;65952;51.440;-2.054;2023-04-24T06:26:24;12.38;;;6.68;;
77022;SDS011;65952;51.440;-2.054;2023-04-24T06:28:52;13.73;;;6.82;;
77022;SDS011;65952;51.440;-2.054;2023-04-24T06:31:20;12.25;;;6.68;;
77022;SDS011;65952;51.440;-2.054;2023-04-24T06:33:48;15.95;;;7.47;;
77022;SDS011;65952;51.440;-2.054;2023-04-24T06:36:14;15.98;;;6.63;;
77022;SDS011;65952;51.440;-2.054;2023-04-24T06:38:39;11.68;;;6.22;;
77022;SDS011;65952;51.440;-2.054;2023-04-24T06:41:05;11.98;;;6.20;;
77022;SDS011;65952;51.440;-2.054;2023-04-24T06:43:33;14.23;;;6.70;;
77022;SDS011;65952;51.440;-2.054;2023-04-24T06:45:59;11.40;;;5.60;;
77022;SDS011;65952;51.440;-2.054;2023-04-24T06:48:25;10.95;;;5.15;;
77022;SDS011;65952;51.440;-2.054;2023-04-24T06:50:51;11.07;;;5.70;;
77022;SDS011;65952;51.440;-2.054;2023-04-24T06:53:17;10.90;;;5.18;;
77022;SDS011;65952;51.440;-2.054;2023-04-24T06:55:42;8.43;;;5.05;;
77022;SDS011;65952;51.440;-2.054;2023-04-24T06:58:11;9.27;;;5.03;;
77022;SDS011;65952;51.440;-2.054;2023-04-24T07:00:36;10.18;;;5.18;;
77022;SDS011;65952;51.440;-2.054;2023-04-24T07:03:02;8.30;;;4.90;;
77022;SDS011;65952;51.440;-2.054;2023-04-24T07:05:30;8.38;;;5.03;;
77022;SDS011;65952;51.440;-2.054;2023-04-24T07:07:56;7.95;;;4.90;;
77022;SDS011;65952;51.440;-2.054;2023-04-24T07:10:23;7.82;;;4.80;;
77022;SDS011;65952;51.440;-2.054;2023-04-24T07:12:49;8.88;;;4.70;;
77022;SDS011;65952;51.440;-2.054;2023-04-24T07:15:14;8.48;;;5.22;;
77022;SDS011;65952;51.440;-2.054;2023-04-24T07:17:40;7.65;;;4.68;;
77022;SDS011;65952;51.440;-2.054;2023-04-24T07:20:08;7.78;;;4.63;;
77022;SDS011;65952;51.440;-2.054;2023-04-24T07:22:35;7.10;;;4.82;;
77022;SDS011;65952;51.440;-2.054;2023-04-24T07:25:00;8.15;;;5.13;;
77022;SDS011;65952;51.440;-2.054;2023-04-24T07:27:26;8.90;;;5.22;;
77022;SDS011;65952;51.440;-2.054;2023-04-24T07:29:52;8.63;;;5.30;;
77022;SDS011;65952;51.440;-2.054;2023-04-24T07:32:17;9.52;;;5.18;;
77022;SDS011;65952;51.440;-2.054;2023-04-24T07:34:42;8.10;;;4.97;;
77022;SDS011;65952;51.440;-2.054;2023-04-24T07:37:08;8.07;;;5.00;;
77022;SDS011;65952;51.440;-2.054;2023-04-24T07:39:33;7.93;;;4.78;;
77022;SDS011;65952;51.440;-2.054;2023-04-24T07:41:58;9.35;;;5.07;;
77022;SDS011;65952;51.440;-2.054;2023-04-24T07:44:24;7.82;;;5.00;;
77022;SDS011;65952;51.440;-2.054;2023-04-24T07:46:49;7.65;;;4.47;;
77022;SDS011;65952;51.440;-2.054;2023-04-24T07:49:15;8.90;;;4.63;;
77022;SDS011;65952;51.440;-2.054;2023-04-24T07:51:40;9.40;;;4.70;;
77022;SDS011;65952;51.440;-2.054;2023-04-24T07:54:06;8.10;;;4.80;;
77022;SDS011;65952;51.440;-2.054;2023-04-24T07:56:32;8.50;;;5.07;;
77022;SDS011;65952;51.440;-2.054;2023-04-24T07:58:58;11.20;;;5.20;;
77022;SDS011;65952;51.440;-2.054;2023-04-24T08:01:23;9.50;;;5.00;;
77022;SDS011;65952;51.440;-2.054;2023-04-24T08:03:50;8.50;;;5.00;;
77022;SDS011;65952;51.440;-2.054;2023-04-24T08:06:16;12.38;;;5.53;;
77022;SDS011;65952;51.440;-2.054;2023-04-24T08:08:41;11.82;;;5.25;;
77022;SDS011;65952;51.440;-2.054;2023-04-24T08:11:07;9.60;;;5.63;;
77022;SDS011;65952;51.440;-2.054;2023-04-24T08:13:32;8.77;;;5.30;;
77022;SDS011;65952;51.440;-2.054;2023-04-24T08:15:57;10.27;;;5.35;;
77022;SDS011;65952;51.440;-2.054;2023-04-24T08:18:23;9.68;;;5.53;;
77022;SDS011;65952;51.440;-2.054;2023-04-24T08:20:48;9.07;;;5.05;;
77022;SDS011;65952;51.440;-2.054;2023-04-24T08:23:14;8.65;;;5.18;;
77022;SDS011;65952;51.440;-2.054;2023-04-24T08:25:39;9.18;;;5.45;;
77022;SDS011;65952;51.440;-2.054;2023-04-24T08:28:05;9.35;;;5.35;;
77022;SDS011;65952;51.440;-2.054;2023-04-24T08:30:31;11.65;;;5.25;;
77022;SDS011;65952;51.440;-2.054;2023-04-24T08:32:57;10.93;;;5.32;;
77022;SDS011;65952;51.440;-2.054;2023-04-24T08:35:22;8.70;;;5.60;;
77022;SDS011;65952;51.440;-2.054;2023-04-24T08:37:48;10.40;;;5.70;;
77022;SDS011;65952;51.440;-2.054;2023-04-24T08:40:14;11.68;;;5.75;;
77022;SDS011;65952;51.440;-2.054;2023-04-24T08:42:43;11.60;;;5.20;;
77022;SDS011;65952;51.440;-2.054;2023-04-24T08:45:10;10.07;;;5.20;;
77022;SDS011;65952;51.440;-2.054;2023-04-24T08:47:37;10.70;;;5.65;;
77022;SDS011;65952;51.440;-2.054;2023-04-24T08:50:06;10.30;;;5.43;;
77022;SDS011;65952;51.440;-2.054;2023-04-24T08:52:33;10.30;;;5.50;;
77022;SDS011;65952;51.440;-2.054;2023-04-24T08:55:02;9.43;;;5.45;;
77022;SDS011;65952;51.440;-2.054;2023-04-24T08:57:28;10.48;;;5.43;;
77022;SDS011;65952;51.440;-2.054;2023-04-24T08:59:56;9.05;;;5.25;;
77022;SDS011;65952;51.440;-2.054;2023-04-24T09:02:23;8.52;;;4.80;;
77022;SDS011;65952;51.440;-2.054;2023-04-24T09:04:49;9.48;;;5.22;;
77022;SDS011;65952;51.440;-2.054;2023-04-24T09:07:15;9.43;;;4.78;;
77022;SDS011;65952;51.440;-2.054;2023-04-24T09:09:43;7.78;;;4.55;;
77022;SDS011;65952;51.440;-2.054;2023-04-24T09:12:09;7.55;;;4.28;;
77022;SDS011;65952;51.440;-2.054;2023-04-24T09:14:35;8.60;;;4.20;;
77022;SDS011;65952;51.440;-2.054;2023-04-24T09:17:04;7.50;;;4.40;;
77022;SDS011;65952;51.440;-2.054;2023-04-24T09:19:31;7.93;;;4.03;;
77022;SDS011;65952;51.440;-2.054;2023-04-24T09:21:56;7.65;;;4.65;;
77022;SDS011;65952;51.440;-2.054;2023-04-24T09:24:22;7.07;;;4.60;;
77022;SDS011;65952;51.440;-2.054;2023-04-24T09:26:47;7.60;;;4.43;;
77022;SDS011;65952;51.440;-2.054;2023-04-24T09:29:17;8.25;;;5.10;;
77022;SDS011;65952;51.440;-2.054;2023-04-24T09:31:44;7.88;;;4.50;;
77022;SDS011;65952;51.440;-2.054;2023-04-24T09:34:10;7.18;;;4.45;;
77022;SDS011;65952;51.440;-2.054;2023-04-24T09:36:39;7.68;;;4.80;;
77022;SDS011;65952;51.440;-2.054;2023-04-24T09:39:07;7.47;;;4.30;;
77022;SDS011;65952;51.440;-2.054;2023-04-24T09:41:44;6.95;;;4.22;;
77022;SDS011;65952;51.440;-2.054;2023-04-24T09:46:36;10.10;;;4.97;;
77022;SDS011;65952;51.440;-2.054;2023-04-24T09:49:14;8.10;;;5.32;;
77022;SDS011;65952;51.440;-2.054;2023-04-24T09:51:41;10.25;;;4.90;;
77022;SDS011;65952;51.440;-2.054;2023-04-24T09:54:20;8.93;;;4.80;;
77022;SDS011;65952;51.440;-2.054;2023-04-24T09:56:47;7.68;;;4.60;;
77022;SDS011;65952;51.440;-2.054;2023-04-24T09:59:14;10.55;;;4.72;;
77022;SDS011;65952;51.440;-2.054;2023-04-24T10:01:40;7.97;;;4.75;;
77022;SDS011;65952;51.440;-2.054;2023-04-24T10:04:19;8.55;;;5.15;;
77022;SDS011;65952;51.440;-2.054;2023-04-24T10:06:48;9.18;;;5.20;;
77022;SDS011;65952;51.440;-2.054;2023-04-24T10:09:14;7.45;;;4.93;;
77022;SDS011;65952;51.440;-2.054;2023-04-24T10:11:41;9.98;;;5.18;;
77022;SDS011;65952;51.440;-2.054;2023-04-24T10:14:09;7.25;;;4.82;;
77022;SDS011;65952;51.440;-2.054;2023-04-24T10:16:37;15.25;;;5.78;;
77022;SDS011;65952;51.440;-2.054;2023-04-24T10:19:04;8.95;;;5.50;;
77022;SDS011;65952;51.440;-2.054;2023-04-24T10:21:30;14.25;;;5.93;;
77022;SDS011;65952;51.440;-2.054;2023-04-24T10:23:56;13.32;;;5.63;;
77022;SDS011;65952;51.440;-2.054;2023-04-24T10:26:22;10.50;;;5.65;;
77022;SDS011;65952;51.440;-2.054;2023-04-24T10:28:48;9.25;;;5.90;;
77022;SDS011;65952;51.440;-2.054;2023-04-24T10:31:14;10.73;;;5.63;;
77022;SDS011;65952;51.440;-2.054;2023-04-24T10:33:43;10.50;;;5.65;;
77022;SDS011;65952;51.440;-2.054;2023-04-24T10:36:10;11.30;;;5.88;;
77022;SDS011;65952;51.440;-2.054;2023-04-24T10:38:39;10.88;;;5.20;;
77022;SDS011;65952;51.440;-2.054;2023-04-24T10:41:08;9.93;;;5.55;;
77022;SDS011;65952;51.440;-2.054;2023-04-24T10:43:44;13.02;;;5.95;;
77022;SDS011;65952;51.440;-2.054;2023-04-24T10:46:10;10.02;;;5.60;;
77022;SDS011;65952;51.440;-2.054;2023-04-24T10:48:35;11.55;;;5.93;;
77022;SDS011;65952;51.440;-2.054;2023-04-24T10:51:01;9.63;;;5.30;;
77022;SDS011;65952;51.440;-2.054;2023-04-24T10:53:27;11.32;;;5.43;;
77022;SDS011;65952;51.440;-2.054;2023-04-24T10:56:04;9.60;;;5.15;;
77022;SDS011;65952;51.440;-2.054;2023-04-24T10:58:41;9.32;;;5.43;;
77022;SDS011;65952;51.440;-2.054;2023-04-24T11:01:23;12.82;;;6.57;;
77022;SDS011;65952;51.440;-2.054;2023-04-24T11:03:56;12.48;;;6.07;;
77022;SDS011;65952;51.440;-2.054;2023-04-24T11:06:31;14.60;;;7.05;;
77022;SDS011;65952;51.440;-2.054;2023-04-24T11:11:32;11.95;;;6.53;;
77022;SDS011;65952;51.440;-2.054;2023-04-24T11:16:28;11.55;;;6.35;;
77022;SDS011;65952;51.440;-2.054;2023-04-24T11:21:33;10.75;;;6.38;;
77022;SDS011;65952;51.440;-2.054;2023-04-24T11:27:13;11.40;;;6.93;;
77022;SDS011;65952;51.440;-2.054;2023-04-24T11:32:15;9.82;;;6.10;;
77022;SDS011;65952;51.440;-2.054;2023-04-24T11:35:01;10.40;;;6.03;;
77022;SDS011;65952;51.440;-2.054;2023-04-24T11:37:28;10.05;;;5.90;;
77022;SDS011;65952;51.440;-2.054;2023-04-24T11:39:58;8.50;;;5.05;;
77022;SDS011;65952;51.440;-2.054;2023-04-24T11:42:24;9.80;;;5.70;;
77022;SDS011;65952;51.440;-2.054;2023-04-24T11:44:51;9.35;;;5.60;;
77022;SDS011;65952;51.440;-2.054;2023-04-24T11:47:18;11.75;;;6.30;;
77022;SDS011;65952;51.440;-2.054;2023-04-24T11:49:43;9.77;;;6.13;;
77022;SDS011;65952;51.440;-2.054;2023-04-24T11:52:09;12.10;;;5.50;;
77022;SDS011;65952;51.440;-2.054;2023-04-24T11:54:35;9.63;;;5.80;;
77022;SDS011;65952;51.440;-2.054;2023-04-24T11:57:03;10.48;;;5.82;;
77022;SDS011;65952;51.440;-2.054;2023-04-24T11:59:34;10.55;;;5.78;;
77022;SDS011;65952;51.440;-2.054;2023-04-24T12:02:00;11.45;;;5.88;;
77022;SDS011;65952;51.440;-2.054;2023-04-24T12:04:26;12.73;;;6.13;;
77022;SDS011;65952;51.440;-2.054;2023-04-24T12:07:03;10.82;;;6.60;;
77022;SDS011;65952;51.440;-2.054;2023-04-24T12:09:55;14.25;;;7.28;;
77022;SDS011;65952;51.440;-2.054;2023-04-24T12:12:24;13.13;;;7.60;;
77022;SDS011;65952;51.440;-2.054;2023-04-24T12:14:55;10.40;;;5.55;;
77022;SDS011;65952;51.440;-2.054;2023-04-24T12:17:28;14.52;;;6.50;;
77022;SDS011;65952;51.440;-2.054;2023-04-24T12:19:59;18.65;;;6.38;;
77022;SDS011;65952;51.440;-2.054;2023-04-24T12:22:27;11.45;;;6.38;;
77022;SDS011;65952;51.440;-2.054;2023-04-24T12:27:22;13.68;;;6.30;;
77022;SDS011;65952;51.440;-2.054;2023-04-24T12:29:57;13.35;;;5.75;;
77022;SDS011;65952;51.440;-2.054;2023-04-24T12:32:23;14.50;;;6.57;;
77022;SDS011;65952;51.440;-2.054;2023-04-24T12:34:50;19.00;;;6.88;;
77022;SDS011;65952;51.440;-2.054;2023-04-24T12:37:17;12.05;;;5.95;;
77022;SDS011;65952;51.440;-2.054;2023-04-24T12:42:44;18.70;;;7.20;;
77022;SDS011;65952;51.440;-2.054;2023-04-24T12:45:14;15.93;;;6.75;;
77022;SDS011;65952;51.440;-2.054;2023-04-24T12:47:40;12.90;;;5.93;;
77022;SDS011;65952;51.440;-2.054;2023-04-24T12:50:07;12.95;;;6.53;;
77022;SDS011;65952;51.440;-2.054;2023-04-24T12:52:33;16.83;;;8.35;;
77022;SDS011;65952;51.440;-2.054;2023-04-24T12:54:59;15.18;;;5.93;;
77022;SDS011;65952;51.440;-2.054;2023-04-24T12:57:26;14.60;;;6.00;;
77022;SDS011;65952;51.440;-2.054;2023-04-24T12:59:57;21.20;;;6.95;;
77022;SDS011;65952;51.440;-2.054;2023-04-24T13:02:27;13.15;;;6.15;;
77022;SDS011;65952;51.440;-2.054;2023-04-24T13:04:55;16.15;;;5.85;;
77022;SDS011;65952;51.440;-2.054;2023-04-24T13:07:20;13.90;;;6.15;;
77022;SDS011;65952;51.440;-2.054;2023-04-24T13:09:47;11.93;;;5.90;;
77022;SDS011;65952;51.440;-2.054;2023-04-24T13:12:13;14.35;;;6.15;;
77022;SDS011;65952;51.440;-2.054;2023-04-24T13:14:40;16.30;;;7.60;;
77022;SDS011;65952;51.440;-2.054;2023-04-24T13:17:05;13.60;;;7.13;;
77022;SDS011;65952;51.440;-2.054;2023-04-24T13:19:38;16.48;;;7.07;;
77022;SDS011;65952;51.440;-2.054;2023-04-24T13:22:05;13.43;;;6.28;;
77022;SDS011;65952;51.440;-2.054;2023-04-24T13:24:31;15.98;;;6.10;;
77022;SDS011;65952;51.440;-2.054;2023-04-24T13:26:57;14.07;;;6.30;;
77022;SDS011;65952;51.440;-2.054;2023-04-24T13:29:23;15.48;;;7.60;;
77022;SDS011;65952;51.440;-2.054;2023-04-24T13:31:52;15.60;;;6.88;;
77022;SDS011;65952;51.440;-2.054;2023-04-24T13:36:47;12.70;;;5.18;;
77022;SDS011;65952;51.440;-2.054;2023-04-24T13:39:15;14.88;;;6.22;;
77022;SDS011;65952;51.440;-2.054;2023-04-24T13:41:40;11.23;;;5.07;;
77022;SDS011;65952;51.440;-2.054;2023-04-24T13:44:06;14.15;;;5.72;;
77022;SDS011;65952;51.440;-2.054;2023-04-24T13:46:31;13.27;;;6.72;;
77022;SDS011;65952;51.440;-2.054;2023-04-24T13:48:57;13.68;;;6.35;;
77022;SDS011;65952;51.440;-2.054;2023-04-24T13:51:23;14.60;;;6.35;;
77022;SDS011;65952;51.440;-2.054;2023-04-24T13:53:52;15.95;;;5.68;;
77022;SDS011;65952;51.440;-2.054;2023-04-24T13:56:18;16.70;;;6.72;;
77022;SDS011;65952;51.440;-2.054;2023-04-24T13:58:43;11.23;;;4.53;;
77022;SDS011;65952;51.440;-2.054;2023-04-24T14:01:08;12.30;;;5.40;;
77022;SDS011;65952;51.440;-2.054;2023-04-24T14:03:34;13.88;;;6.50;;
77022;SDS011;65952;51.440;-2.054;2023-04-24T14:05:59;13.85;;;7.03;;
77022;SDS011;65952;51.440;-2.054;2023-04-24T14:08:25;17.10;;;6.55;;
77022;SDS011;65952;51.440;-2.054;2023-04-24T14:10:50;13.88;;;6.88;;
77022;SDS011;65952;51.440;-2.054;2023-04-24T14:13:16;15.38;;;6.38;;
77022;SDS011;65952;51.440;-2.054;2023-04-24T14:15:42;9.30;;;4.97;;
77022;SDS011;65952;51.440;-2.054;2023-04-24T14:18:07;11.55;;;5.65;;
77022;SDS011;65952;51.440;-2.054;2023-04-24T14:20:33;12.23;;;5.38;;
77022;SDS011;65952;51.440;-2.054;2023-04-24T14:22:58;10.80;;;5.85;;
77022;SDS011;65952;51.440;-2.054;2023-04-24T14:25:26;10.20;;;5.00;;
77022;SDS011;65952;51.440;-2.054;2023-04-24T14:27:52;18.30;;;6.15;;
77022;SDS011;65952;51.440;-2.054;2023-04-24T14:30:17;11.75;;;5.80;;
77022;SDS011;65952;51.440;-2.054;2023-04-24T14:32:43;11.88;;;6.13;;
77022;SDS011;65952;51.440;-2.054;2023-04-24T14:35:09;10.93;;;5.38;;
77022;SDS011;65952;51.440;-2.054;2023-04-24T14:37:34;11.25;;;5.97;;
77022;SDS011;65952;51.440;-2.054;2023-04-24T14:40:01;12.23;;;5.70;;
77022;SDS011;65952;51.440;-2.054;2023-04-24T14:42:26;10.82;;;5.65;;
77022;SDS011;65952;51.440;-2.054;2023-04-24T14:44:53;11.07;;;5.63;;